sensor_id;sensor_type;location;lat;lon;timestamp;pressure;altitude;pressure_sealevel;temperature;humidity
17615;BME280;8926;49.720;6.576;2022-10-22T00:00:22;99231.88;;;16.35;99.71
17615;BME280;8926;49.720;6.576;2022-10-22T00:02:47;99223.66;;;16.38;99.44
17615;BME280;8926;49.720;6.576;2022-10-22T00:05:12;99222.69;;;16.39;99.18
17615;BME280;8926;49.720;6.576;2022-10-22T00:07:38;99224.38;;;16.40;98.99
17615;BME280;8926;49.720;6.576;2022-10-22T00:10:05;99219.09;;;16.40;98.55
17615;BME280;8926;49.720;6.576;2022-10-22T00:12:30;99219.09;;;16.40;98.78
17615;BME280;8926;49.720;6.576;2022-10-22T00:14:56;99217.56;;;16.37;98.39
17615;BME280;8926;49.720;6.576;2022-10-22T00:17:21;99215.75;;;16.38;98.53
17615;BME280;8926;49.720;6.576;2022-10-22T00:19:47;99223.00;;;16.36;98.55
17615;BME280;8926;49.720;6.576;2022-10-22T00:22:12;99218.41;;;16.38;98.62
17615;BME280;8926;49.720;6.576;2022-10-22T00:24:38;99219.41;;;16.37;98.32
17615;BME280;8926;49.720;6.576;2022-10-22T00:27:05;99236.00;;;16.37;98.36
17615;BME280;8926;49.720;6.576;2022-10-22T00:29:31;99243.25;;;16.35;98.39
17615;BME280;8926;49.720;6.576;2022-10-22T00:31:56;99242.41;;;16.35;98.63
17615;BME280;8926;49.720;6.576;2022-10-22T00:34:22;99252.97;;;16.35;98.58
17615;BME280;8926;49.720;6.576;2022-10-22T00:36:49;99259.91;;;16.36;98.47
17615;BME280;8926;49.720;6.576;2022-10-22T00:39:16;99275.56;;;16.37;98.34
17615;BME280;8926;49.720;6.576;2022-10-22T00:41:43;99279.03;;;16.38;98.50
17615;BME280;8926;49.720;6.576;2022-10-22T00:47:14;99279.72;;;16.40;97.70
17615;BME280;8926;49.720;6.576;2022-10-22T00:49:40;99282.38;;;16.40;97.59
17615;BME280;8926;49.720;6.576;2022-10-22T00:52:06;99273.50;;;16.41;97.66
17615;BME280;8926;49.720;6.576;2022-10-22T00:54:32;99283.34;;;16.39;97.34
17615;BME280;8926;49.720;6.576;2022-10-22T00:56:58;99276.56;;;16.36;96.72
17615;BME280;8926;49.720;6.576;2022-10-22T00:59:23;99281.00;;;16.36;96.63
17615;BME280;8926;49.720;6.576;2022-10-22T01:01:49;99279.31;;;16.35;96.65
17615;BME280;8926;49.720;6.576;2022-10-22T01:04:15;99284.59;;;16.35;96.40
17615;BME280;8926;49.720;6.576;2022-10-22T01:06:41;99286.28;;;16.36;96.42
17615;BME280;8926;49.720;6.576;2022-10-22T01:12:05;99287.94;;;16.37;95.96
17615;BME280;8926;49.720;6.576;2022-10-22T01:17:09;99289.75;;;16.36;95.95
17615;BME280;8926;49.720;6.576;2022-10-22T01:22:31;99287.63;;;16.30;95.17
17615;BME280;8926;49.720;6.576;2022-10-22T01:30:27;99298.19;;;16.30;95.30
17615;BME280;8926;49.720;6.576;2022-10-22T01:32:56;99301.78;;;16.29;94.95
17615;BME280;8926;49.720;6.576;2022-10-22T01:35:27;99297.34;;;16.29;94.73
17615;BME280;8926;49.720;6.576;2022-10-22T01:37:57;99284.16;;;16.29;94.44
17615;BME280;8926;49.720;6.576;2022-10-22T01:40:24;99272.66;;;16.31;94.26
17615;BME280;8926;49.720;6.576;2022-10-22T01:42:58;99291.38;;;16.27;94.15
17615;BME280;8926;49.720;6.576;2022-10-22T01:45:24;99299.28;;;16.27;93.83
17615;BME280;8926;49.720;6.576;2022-10-22T01:58:56;99306.03;;;16.20;93.76
17615;BME280;8926;49.720;6.576;2022-10-22T02:04:27;99301.28;;;16.14;93.52
17615;BME280;8926;49.720;6.576;2022-10-22T02:07:00;99300.59;;;16.12;93.40
17615;BME280;8926;49.720;6.576;2022-10-22T02:09:29;99306.84;;;16.11;92.68
17615;BME280;8926;49.720;6.576;2022-10-22T02:11:58;99305.31;;;16.09;93.03
17615;BME280;8926;49.720;6.576;2022-10-22T02:14:27;99299.22;;;16.08;92.91
17615;BME280;8926;49.720;6.576;2022-10-22T02:16:55;99301.16;;;16.06;92.62
17615;BME280;8926;49.720;6.576;2022-10-22T02:19:27;99307.66;;;16.02;92.89
17615;BME280;8926;49.720;6.576;2022-10-22T02:21:56;99313.03;;;16.01;92.81
17615;BME280;8926;49.720;6.576;2022-10-22T02:24:23;99311.50;;;15.98;92.98
17615;BME280;8926;49.720;6.576;2022-10-22T02:29:40;99310.81;;;15.96;93.31
17615;BME280;8926;49.720;6.576;2022-10-22T02:32:10;99312.72;;;15.94;93.12
17615;BME280;8926;49.720;6.576;2022-10-22T02:34:40;99307.72;;;15.91;93.11
17615;BME280;8926;49.720;6.576;2022-10-22T02:37:06;99312.53;;;15.86;93.10
17615;BME280;8926;49.720;6.576;2022-10-22T02:39:34;99306.72;;;15.82;93.51
17615;BME280;8926;49.720;6.576;2022-10-22T02:42:01;99324.34;;;15.82;93.58
17615;BME280;8926;49.720;6.576;2022-10-22T02:44:27;99325.28;;;15.81;93.68
17615;BME280;8926;49.720;6.576;2022-10-22T02:46:52;99322.66;;;15.81;93.77
17615;BME280;8926;49.720;6.576;2022-10-22T02:49:18;99326.25;;;15.80;93.32
17615;BME280;8926;49.720;6.576;2022-10-22T02:51:43;99330.69;;;15.79;93.59
17615;BME280;8926;49.720;6.576;2022-10-22T02:54:09;99326.25;;;15.80;93.56
17615;BME280;8926;49.720;6.576;2022-10-22T02:56:34;99331.78;;;15.77;93.76
17615;BME280;8926;49.720;6.576;2022-10-22T02:59:02;99335.38;;;15.76;93.72
17615;BME280;8926;49.720;6.576;2022-10-22T03:01:28;99343.41;;;15.74;93.65
17615;BME280;8926;49.720;6.576;2022-10-22T03:03:53;99342.56;;;15.74;93.53
17615;BME280;8926;49.720;6.576;2022-10-22T03:06:19;99337.31;;;15.74;93.78
17615;BME280;8926;49.720;6.576;2022-10-22T03:08:44;99350.47;;;15.74;93.60
17615;BME280;8926;49.720;6.576;2022-10-22T03:11:10;99351.44;;;15.73;93.37
17615;BME280;8926;49.720;6.576;2022-10-22T03:13:36;99349.91;;;15.70;93.67
17615;BME280;8926;49.720;6.576;2022-10-22T03:16:02;99357.22;;;15.67;93.51
17615;BME280;8926;49.720;6.576;2022-10-22T03:18:27;99350.53;;;15.63;93.74
17615;BME280;8926;49.720;6.576;2022-10-22T03:21:09;99356.06;;;15.59;93.80
17615;BME280;8926;49.720;6.576;2022-10-22T03:23:36;99362.44;;;15.57;93.59
17615;BME280;8926;49.720;6.576;2022-10-22T03:26:03;99372.34;;;15.53;93.52
17615;BME280;8926;49.720;6.576;2022-10-22T03:28:29;99369.97;;;15.50;93.92
17615;BME280;8926;49.720;6.576;2022-10-22T03:30:54;99374.28;;;15.51;94.04
17615;BME280;8926;49.720;6.576;2022-10-22T03:33:20;99384.81;;;15.51;94.00
17615;BME280;8926;49.720;6.576;2022-10-22T03:35:46;99377.88;;;15.50;94.10
17615;BME280;8926;49.720;6.576;2022-10-22T03:38:12;99388.41;;;15.50;93.90
17615;BME280;8926;49.720;6.576;2022-10-22T03:40:39;99385.06;;;15.48;93.50
17615;BME280;8926;49.720;6.576;2022-10-22T03:43:10;99385.06;;;15.48;93.82
17615;BME280;8926;49.720;6.576;2022-10-22T03:45:36;99392.25;;;15.46;93.66
17615;BME280;8926;49.720;6.576;2022-10-22T03:48:04;99399.44;;;15.44;93.31
17615;BME280;8926;49.720;6.576;2022-10-22T03:50:30;99400.50;;;15.42;93.67
17615;BME280;8926;49.720;6.576;2022-10-22T03:52:55;99399.69;;;15.41;93.84
17615;BME280;8926;49.720;6.576;2022-10-22T03:55:22;99402.31;;;15.41;93.60
17615;BME280;8926;49.720;6.576;2022-10-22T03:57:48;99393.00;;;15.37;93.42
17615;BME280;8926;49.720;6.576;2022-10-22T04:00:13;99407.09;;;15.36;93.23
17615;BME280;8926;49.720;6.576;2022-10-22T04:02:39;99409.31;;;15.31;93.28
17615;BME280;8926;49.720;6.576;2022-10-22T04:05:07;99402.63;;;15.27;93.50
17615;BME280;8926;49.720;6.576;2022-10-22T04:07:33;99396.63;;;15.25;93.46
17615;BME280;8926;49.720;6.576;2022-10-22T04:10:02;99412.56;;;15.23;93.73
17615;BME280;8926;49.720;6.576;2022-10-22T04:12:30;99411.72;;;15.23;93.47
17615;BME280;8926;49.720;6.576;2022-10-22T04:14:56;99407.28;;;15.23;93.46
17615;BME280;8926;49.720;6.576;2022-10-22T04:17:21;99405.03;;;15.19;93.63
17615;BME280;8926;49.720;6.576;2022-10-22T04:19:47;99409.47;;;15.18;93.54
17615;BME280;8926;49.720;6.576;2022-10-22T04:22:12;99421.06;;;15.16;93.18
17615;BME280;8926;49.720;6.576;2022-10-22T04:24:38;99415.78;;;15.16;93.04
17615;BME280;8926;49.720;6.576;2022-10-22T04:27:03;99411.63;;;15.13;93.37
17615;BME280;8926;49.720;6.576;2022-10-22T04:29:28;99416.28;;;15.10;92.85
17615;BME280;8926;49.720;6.576;2022-10-22T04:31:54;99420.84;;;15.08;93.29
17615;BME280;8926;49.720;6.576;2022-10-22T04:34:19;99427.88;;;15.07;93.13
17615;BME280;8926;49.720;6.576;2022-10-22T04:36:45;99427.09;;;15.07;92.92
17615;BME280;8926;49.720;6.576;2022-10-22T04:39:30;99415.13;;;15.03;92.67
17615;BME280;8926;49.720;6.576;2022-10-22T04:41:55;99419.69;;;15.01;92.72
17615;BME280;8926;49.720;6.576;2022-10-22T04:44:21;99422.31;;;15.01;92.41
17615;BME280;8926;49.720;6.576;2022-10-22T04:46:49;99428.53;;;15.00;92.15
17615;BME280;8926;49.720;6.576;2022-10-22T04:49:14;99436.66;;;14.97;92.02
17615;BME280;8926;49.720;6.576;2022-10-22T04:51:39;99436.91;;;14.93;92.32
17615;BME280;8926;49.720;6.576;2022-10-22T04:54:08;99444.78;;;14.93;91.91
17615;BME280;8926;49.720;6.576;2022-10-22T04:56:33;99435.47;;;14.89;91.88
17615;BME280;8926;49.720;6.576;2022-10-22T04:59:03;99438.47;;;14.85;91.86
17615;BME280;8926;49.720;6.576;2022-10-22T05:01:37;99446.47;;;14.83;92.04
17615;BME280;8926;49.720;6.576;2022-10-22T05:04:06;99444.78;;;14.82;91.51
17615;BME280;8926;49.720;6.576;2022-10-22T05:06:34;99446.97;;;14.77;91.58
17615;BME280;8926;49.720;6.576;2022-10-22T05:09:06;99444.59;;;14.74;91.57
17615;BME280;8926;49.720;6.576;2022-10-22T05:11:34;99445.53;;;14.73;91.86
17615;BME280;8926;49.720;6.576;2022-10-22T05:14:02;99439.69;;;14.70;91.67
17615;BME280;8926;49.720;6.576;2022-10-22T05:16:29;99438.13;;;14.67;91.93
17615;BME280;8926;49.720;6.576;2022-10-22T05:18:57;99439.91;;;14.67;91.57
17615;BME280;8926;49.720;6.576;2022-10-22T05:21:23;99434.66;;;14.67;92.03
17615;BME280;8926;49.720;6.576;2022-10-22T05:23:49;99437.41;;;14.65;91.76
17615;BME280;8926;49.720;6.576;2022-10-22T05:26:17;99438.25;;;14.66;91.71
17615;BME280;8926;49.720;6.576;2022-10-22T05:28:43;99444.56;;;14.63;91.25
17615;BME280;8926;49.720;6.576;2022-10-22T05:31:11;99445.66;;;14.60;91.57
17615;BME280;8926;49.720;6.576;2022-10-22T05:33:37;99454.59;;;14.58;91.30
17615;BME280;8926;49.720;6.576;2022-10-22T05:36:04;99460.81;;;14.57;91.57
17615;BME280;8926;49.720;6.576;2022-10-22T05:38:31;99469.66;;;14.56;91.39
17615;BME280;8926;49.720;6.576;2022-10-22T05:41:14;99468.97;;;14.54;90.82
17615;BME280;8926;49.720;6.576;2022-10-22T05:43:42;99480.44;;;14.53;91.41
17615;BME280;8926;49.720;6.576;2022-10-22T05:46:10;99482.34;;;14.51;91.14
17615;BME280;8926;49.720;6.576;2022-10-22T05:48:36;99479.00;;;14.49;90.97
17615;BME280;8926;49.720;6.576;2022-10-22T05:51:08;99489.75;;;14.46;90.29
17615;BME280;8926;49.720;6.576;2022-10-22T05:53:36;99493.31;;;14.45;90.62
17615;BME280;8926;49.720;6.576;2022-10-22T05:56:07;99493.75;;;14.39;90.59
17615;BME280;8926;49.720;6.576;2022-10-22T05:58:33;99499.69;;;14.30;91.18
17615;BME280;8926;49.720;6.576;2022-10-22T06:01:07;99497.56;;;14.23;91.71
17615;BME280;8926;49.720;6.576;2022-10-22T06:03:33;99497.56;;;14.23;91.94
17615;BME280;8926;49.720;6.576;2022-10-22T06:06:04;99496.84;;;14.21;91.09
17615;BME280;8926;49.720;6.576;2022-10-22T06:08:32;99510.69;;;14.23;91.73
17615;BME280;8926;49.720;6.576;2022-10-22T06:10:58;99510.69;;;14.23;91.07
17615;BME280;8926;49.720;6.576;2022-10-22T06:13:24;99514.28;;;14.22;91.17
17615;BME280;8926;49.720;6.576;2022-10-22T06:15:50;99513.56;;;14.20;91.11
17615;BME280;8926;49.720;6.576;2022-10-22T06:18:18;99518.09;;;14.18;91.07
17615;BME280;8926;49.720;6.576;2022-10-22T06:20:43;99526.09;;;14.17;91.64
17615;BME280;8926;49.720;6.576;2022-10-22T06:23:09;99534.06;;;14.15;91.20
17615;BME280;8926;49.720;6.576;2022-10-22T06:25:35;99535.97;;;14.13;91.19
17615;BME280;8926;49.720;6.576;2022-10-22T06:28:00;99538.59;;;14.13;91.22
17615;BME280;8926;49.720;6.576;2022-10-22T06:30:26;99528.81;;;14.15;91.48
17615;BME280;8926;49.720;6.576;2022-10-22T06:32:51;99535.75;;;14.16;91.14
17615;BME280;8926;49.720;6.576;2022-10-22T06:35:17;99547.31;;;14.14;91.33
17615;BME280;8926;49.720;6.576;2022-10-22T06:37:42;99551.75;;;14.13;91.40
17615;BME280;8926;49.720;6.576;2022-10-22T06:40:08;99547.94;;;14.17;91.71
17615;BME280;8926;49.720;6.576;2022-10-22T06:42:35;99556.31;;;14.22;91.05
17615;BME280;8926;49.720;6.576;2022-10-22T06:45:00;99558.97;;;14.34;90.86
17615;BME280;8926;49.720;6.576;2022-10-22T06:47:26;99563.75;;;14.40;90.17
17615;BME280;8926;49.720;6.576;2022-10-22T06:49:51;99556.19;;;14.48;90.24
17615;BME280;8926;49.720;6.576;2022-10-22T06:52:16;99557.63;;;14.52;89.61
17615;BME280;8926;49.720;6.576;2022-10-22T06:54:42;99565.97;;;14.57;88.92
17615;BME280;8926;49.720;6.576;2022-10-22T06:57:07;99575.81;;;14.66;89.24
17615;BME280;8926;49.720;6.576;2022-10-22T06:59:33;99575.34;;;14.72;88.47
17615;BME280;8926;49.720;6.576;2022-10-22T07:01:58;99576.56;;;14.79;87.67
17615;BME280;8926;49.720;6.576;2022-10-22T07:04:24;99579.63;;;14.84;87.78
17615;BME280;8926;49.720;6.576;2022-10-22T07:06:49;99582.53;;;14.92;87.52
17615;BME280;8926;49.720;6.576;2022-10-22T07:09:15;99583.75;;;15.00;87.31
17615;BME280;8926;49.720;6.576;2022-10-22T07:11:43;99592.13;;;15.05;86.71
17615;BME280;8926;49.720;6.576;2022-10-22T07:14:10;99599.75;;;15.19;86.50
17615;BME280;8926;49.720;6.576;2022-10-22T07:16:36;99604.31;;;15.28;85.43
17615;BME280;8926;49.720;6.576;2022-10-22T07:19:03;99606.91;;;15.39;85.28
17615;BME280;8926;49.720;6.576;2022-10-22T07:21:29;99608.16;;;15.57;84.69
17615;BME280;8926;49.720;6.576;2022-10-22T07:23:56;99615.06;;;15.70;84.07
17615;BME280;8926;49.720;6.576;2022-10-22T07:26:22;99616.50;;;15.74;84.00
17615;BME280;8926;49.720;6.576;2022-10-22T07:28:50;99613.88;;;15.63;84.34
17615;BME280;8926;49.720;6.576;2022-10-22T07:31:16;99611.00;;;15.54;85.23
17615;BME280;8926;49.720;6.576;2022-10-22T07:33:42;99613.38;;;15.46;84.66
17615;BME280;8926;49.720;6.576;2022-10-22T07:36:11;99603.44;;;15.39;84.97
17615;BME280;8926;49.720;6.576;2022-10-22T07:38:41;99610.50;;;15.38;85.09
17615;BME280;8926;49.720;6.576;2022-10-22T07:41:07;99609.78;;;15.36;85.28
17615;BME280;8926;49.720;6.576;2022-10-22T07:43:32;99622.72;;;15.39;85.23
17615;BME280;8926;49.720;6.576;2022-10-22T07:45:57;99616.75;;;15.48;85.23
17615;BME280;8926;49.720;6.576;2022-10-22T07:48:24;99616.34;;;17.53;79.53
17615;BME280;8926;49.720;6.576;2022-10-22T07:50:49;99613.28;;;18.46;74.95
17615;BME280;8926;49.720;6.576;2022-10-22T07:53:15;99618.38;;;17.70;76.98
17615;BME280;8926;49.720;6.576;2022-10-22T07:55:41;99619.25;;;17.10;77.90
17615;BME280;8926;49.720;6.576;2022-10-22T07:58:06;99636.25;;;16.75;79.00
17615;BME280;8926;49.720;6.576;2022-10-22T08:00:31;99636.09;;;16.56;79.88
17615;BME280;8926;49.720;6.576;2022-10-22T08:02:57;99640.19;;;16.49;80.01
17615;BME280;8926;49.720;6.576;2022-10-22T08:05:29;99643.28;;;16.54;79.49
17615;BME280;8926;49.720;6.576;2022-10-22T08:07:54;99638.41;;;16.49;80.54
17615;BME280;8926;49.720;6.576;2022-10-22T08:10:19;99647.16;;;16.50;80.22
17615;BME280;8926;49.720;6.576;2022-10-22T08:12:45;99650.25;;;16.55;79.58
17615;BME280;8926;49.720;6.576;2022-10-22T08:15:10;99646.94;;;17.55;77.98
17615;BME280;8926;49.720;6.576;2022-10-22T08:17:36;99644.44;;;17.54;76.77
17615;BME280;8926;49.720;6.576;2022-10-22T08:20:01;99641.09;;;17.52;76.57
17615;BME280;8926;49.720;6.576;2022-10-22T08:22:33;99649.78;;;18.71;73.03
17615;BME280;8926;49.720;6.576;2022-10-22T08:24:58;99644.59;;;18.21;74.62
17615;BME280;8926;49.720;6.576;2022-10-22T08:27:25;99650.63;;;17.74;75.21
17615;BME280;8926;49.720;6.576;2022-10-22T08:29:51;99651.59;;;17.42;77.12
17615;BME280;8926;49.720;6.576;2022-10-22T08:32:16;99654.53;;;17.09;77.48
17615;BME280;8926;49.720;6.576;2022-10-22T08:34:44;99668.56;;;16.88;79.14
17615;BME280;8926;49.720;6.576;2022-10-22T08:37:10;99675.56;;;16.78;78.84
17615;BME280;8926;49.720;6.576;2022-10-22T08:39:38;99682.31;;;16.71;79.43
17615;BME280;8926;49.720;6.576;2022-10-22T08:42:49;99672.00;;;16.68;80.18
17615;BME280;8926;49.720;6.576;2022-10-22T08:45:17;99684.25;;;16.69;80.60
17615;BME280;8926;49.720;6.576;2022-10-22T08:50:22;99697.44;;;16.69;80.37
17615;BME280;8926;49.720;6.576;2022-10-22T08:52:52;99700.50;;;16.85;80.23
17615;BME280;8926;49.720;6.576;2022-10-22T08:55:23;99696.75;;;17.09;79.22
17615;BME280;8926;49.720;6.576;2022-10-22T08:58:08;99686.91;;;17.41;78.05
17615;BME280;8926;49.720;6.576;2022-10-22T09:01:05;99685.53;;;18.27;75.87
17615;BME280;8926;49.720;6.576;2022-10-22T09:03:44;99675.16;;;19.30;71.39
17615;BME280;8926;49.720;6.576;2022-10-22T09:06:20;99675.91;;;19.59;70.91
17615;BME280;8926;49.720;6.576;2022-10-22T09:08:49;99679.28;;;19.52;69.54
17615;BME280;8926;49.720;6.576;2022-10-22T09:11:30;99687.91;;;19.63;69.46
17615;BME280;8926;49.720;6.576;2022-10-22T09:13:56;99692.97;;;19.47;69.80
17615;BME280;8926;49.720;6.576;2022-10-22T09:16:33;99691.88;;;19.40;71.20
17615;BME280;8926;49.720;6.576;2022-10-22T09:25:04;99682.94;;;19.78;69.18
17615;BME280;8926;49.720;6.576;2022-10-22T09:27:35;99681.88;;;19.71;69.10
17615;BME280;8926;49.720;6.576;2022-10-22T09:30:00;99681.97;;;19.42;69.33
17615;BME280;8926;49.720;6.576;2022-10-22T09:32:32;99677.41;;;19.25;68.93
17615;BME280;8926;49.720;6.576;2022-10-22T09:34:58;99676.25;;;19.37;70.03
17615;BME280;8926;49.720;6.576;2022-10-22T09:37:27;99688.31;;;19.22;69.95
17615;BME280;8926;49.720;6.576;2022-10-22T09:39:54;99684.00;;;19.58;69.64
17615;BME280;8926;49.720;6.576;2022-10-22T09:42:20;99685.69;;;19.49;69.37
17615;BME280;8926;49.720;6.576;2022-10-22T09:44:54;99688.53;;;19.75;68.56
17615;BME280;8926;49.720;6.576;2022-10-22T09:47:38;99692.78;;;20.41;66.79
17615;BME280;8926;49.720;6.576;2022-10-22T09:50:20;99700.44;;;20.44;66.02
17615;BME280;8926;49.720;6.576;2022-10-22T09:55:30;99698.78;;;20.78;65.38
17615;BME280;8926;49.720;6.576;2022-10-22T09:57:58;99698.34;;;20.47;65.41
17615;BME280;8926;49.720;6.576;2022-10-22T10:00:25;99701.00;;;20.20;66.18
17615;BME280;8926;49.720;6.576;2022-10-22T10:02:58;99707.59;;;20.33;66.24
17615;BME280;8926;49.720;6.576;2022-10-22T10:05:32;99705.44;;;20.64;65.71
17615;BME280;8926;49.720;6.576;2022-10-22T10:08:04;99701.94;;;20.82;64.88
17615;BME280;8926;49.720;6.576;2022-10-22T10:10:40;99710.31;;;20.51;65.85
17615;BME280;8926;49.720;6.576;2022-10-22T10:16:02;99701.28;;;20.17;67.18
17615;BME280;8926;49.720;6.576;2022-10-22T10:18:49;99701.53;;;20.23;66.04
17615;BME280;8926;49.720;6.576;2022-10-22T10:35:17;99695.03;;;23.08;58.87
17615;BME280;8926;49.720;6.576;2022-10-22T10:38:02;99689.88;;;22.98;58.35
17615;BME280;8926;49.720;6.576;2022-10-22T10:40:43;99692.69;;;23.13;58.07
17615;BME280;8926;49.720;6.576;2022-10-22T10:43:37;99686.78;;;23.58;57.51
17615;BME280;8926;49.720;6.576;2022-10-22T10:46:32;99689.63;;;23.48;56.68
17615;BME280;8926;49.720;6.576;2022-10-22T10:49:09;99688.72;;;23.72;56.90
17615;BME280;8926;49.720;6.576;2022-10-22T10:54:37;99699.47;;;23.40;55.41
17615;BME280;8926;49.720;6.576;2022-10-22T10:57:16;99695.34;;;23.37;56.27
17615;BME280;8926;49.720;6.576;2022-10-22T11:00:06;99702.84;;;23.17;56.50
17615;BME280;8926;49.720;6.576;2022-10-22T11:06:11;99696.63;;;22.27;58.90
17615;BME280;8926;49.720;6.576;2022-10-22T11:08:46;99698.28;;;22.28;58.32
17615;BME280;8926;49.720;6.576;2022-10-22T11:11:47;99695.38;;;22.88;58.43
17615;BME280;8926;49.720;6.576;2022-10-22T11:17:00;99692.53;;;21.99;59.47
17615;BME280;8926;49.720;6.576;2022-10-22T11:19:42;99695.78;;;21.85;59.47
17615;BME280;8926;49.720;6.576;2022-10-22T11:22:18;99688.25;;;22.06;59.42
17615;BME280;8926;49.720;6.576;2022-10-22T11:25:03;99689.41;;;21.70;60.14
17615;BME280;8926;49.720;6.576;2022-10-22T11:28:04;99692.34;;;21.58;60.71
17615;BME280;8926;49.720;6.576;2022-10-22T11:30:34;99695.44;;;21.20;61.13
17615;BME280;8926;49.720;6.576;2022-10-22T11:33:04;99692.53;;;20.87;62.61
17615;BME280;8926;49.720;6.576;2022-10-22T11:35:39;99702.09;;;20.62;63.29
17615;BME280;8926;49.720;6.576;2022-10-22T11:38:06;99694.59;;;20.58;64.19
17615;BME280;8926;49.720;6.576;2022-10-22T11:40:42;99689.88;;;20.87;63.49
17615;BME280;8926;49.720;6.576;2022-10-22T11:43:10;99696.50;;;21.27;62.86
17615;BME280;8926;49.720;6.576;2022-10-22T11:45:38;99689.28;;;21.45;61.81
17615;BME280;8926;49.720;6.576;2022-10-22T11:50:58;99684.66;;;21.81;62.05
17615;BME280;8926;49.720;6.576;2022-10-22T11:55:51;99685.16;;;21.85;61.94
17615;BME280;8926;49.720;6.576;2022-10-22T12:00:53;99680.88;;;22.00;60.29
17615;BME280;8926;49.720;6.576;2022-10-22T12:03:37;99682.69;;;21.57;61.21
17615;BME280;8926;49.720;6.576;2022-10-22T12:06:17;99691.59;;;21.40;62.45
17615;BME280;8926;49.720;6.576;2022-10-22T12:11:20;99681.56;;;21.34;62.56
17615;BME280;8926;49.720;6.576;2022-10-22T12:14:18;99684.06;;;21.27;63.33
17615;BME280;8926;49.720;6.576;2022-10-22T12:16:50;99684.88;;;21.28;63.58
17615;BME280;8926;49.720;6.576;2022-10-22T12:19:25;99680.88;;;21.24;63.21
17615;BME280;8926;49.720;6.576;2022-10-22T12:22:13;99680.19;;;21.22;63.37
17615;BME280;8926;49.720;6.576;2022-10-22T12:24:41;99669.25;;;21.25;61.99
17615;BME280;8926;49.720;6.576;2022-10-22T12:27:34;99665.94;;;21.31;62.37
17615;BME280;8926;49.720;6.576;2022-10-22T12:30:01;99650.09;;;21.47;61.90
17615;BME280;8926;49.720;6.576;2022-10-22T12:32:35;99657.50;;;21.36;62.41
17615;BME280;8926;49.720;6.576;2022-10-22T12:35:06;99668.66;;;21.39;63.30
17615;BME280;8926;49.720;6.576;2022-10-22T12:37:36;99657.72;;;21.42;62.39
17615;BME280;8926;49.720;6.576;2022-10-22T12:40:16;99656.00;;;21.33;61.13
17615;BME280;8926;49.720;6.576;2022-10-22T12:42:56;99652.09;;;21.45;61.42
17615;BME280;8926;49.720;6.576;2022-10-22T12:45:25;99644.47;;;21.50;61.24
17615;BME280;8926;49.720;6.576;2022-10-22T12:47:55;99648.50;;;21.62;61.69
17615;BME280;8926;49.720;6.576;2022-10-22T12:50:28;99642.75;;;21.75;60.14
17615;BME280;8926;49.720;6.576;2022-10-22T12:52:55;99640.91;;;21.84;59.16
17615;BME280;8926;49.720;6.576;2022-10-22T12:55:21;99637.28;;;21.85;59.37
17615;BME280;8926;49.720;6.576;2022-10-22T12:57:50;99641.44;;;21.87;59.67
17615;BME280;8926;49.720;6.576;2022-10-22T13:00:27;99643.00;;;21.64;58.97
17615;BME280;8926;49.720;6.576;2022-10-22T13:03:05;99636.50;;;21.58;59.09
17615;BME280;8926;49.720;6.576;2022-10-22T13:05:33;99627.94;;;21.73;59.48
17615;BME280;8926;49.720;6.576;2022-10-22T13:08:10;99632.09;;;21.75;59.25
17615;BME280;8926;49.720;6.576;2022-10-22T13:10:40;99626.28;;;21.72;59.25
17615;BME280;8926;49.720;6.576;2022-10-22T13:13:51;99639.88;;;21.68;59.45
17615;BME280;8926;49.720;6.576;2022-10-22T13:16:24;99633.22;;;21.56;59.80
17615;BME280;8926;49.720;6.576;2022-10-22T13:18:52;99642.69;;;21.33;59.98
17615;BME280;8926;49.720;6.576;2022-10-22T13:21:27;99638.34;;;21.24;59.62
17615;BME280;8926;49.720;6.576;2022-10-22T13:23:55;99637.38;;;21.33;59.64
17615;BME280;8926;49.720;6.576;2022-10-22T13:26:21;99635.53;;;21.25;59.81
17615;BME280;8926;49.720;6.576;2022-10-22T13:28:55;99632.41;;;21.30;59.80
17615;BME280;8926;49.720;6.576;2022-10-22T13:31:26;99633.03;;;21.24;59.13
17615;BME280;8926;49.720;6.576;2022-10-22T13:33:55;99635.31;;;21.19;60.06
17615;BME280;8926;49.720;6.576;2022-10-22T13:36:21;99631.66;;;21.20;60.56
17615;BME280;8926;49.720;6.576;2022-10-22T13:38:46;99631.38;;;21.23;60.17
17615;BME280;8926;49.720;6.576;2022-10-22T13:41:22;99623.63;;;21.12;60.24
17615;BME280;8926;49.720;6.576;2022-10-22T13:43:48;99627.19;;;20.94;60.70
17615;BME280;8926;49.720;6.576;2022-10-22T13:46:14;99628.47;;;20.90;61.17
17615;BME280;8926;49.720;6.576;2022-10-22T13:48:40;99632.91;;;20.82;61.40
17615;BME280;8926;49.720;6.576;2022-10-22T13:51:13;99627.69;;;20.72;62.48
17615;BME280;8926;49.720;6.576;2022-10-22T13:53:40;99637.25;;;20.65;62.56
17615;BME280;8926;49.720;6.576;2022-10-22T13:56:05;99630.88;;;20.58;63.16
17615;BME280;8926;49.720;6.576;2022-10-22T13:58:30;99635.38;;;20.57;63.91
17615;BME280;8926;49.720;6.576;2022-10-22T14:00:57;99638.81;;;20.50;64.23
17615;BME280;8926;49.720;6.576;2022-10-22T14:03:27;99636.44;;;20.47;64.46
17615;BME280;8926;49.720;6.576;2022-10-22T14:05:53;99637.75;;;20.43;65.10
17615;BME280;8926;49.720;6.576;2022-10-22T14:08:20;99649.22;;;20.33;65.17
17615;BME280;8926;49.720;6.576;2022-10-22T14:10:46;99642.34;;;20.23;65.44
17615;BME280;8926;49.720;6.576;2022-10-22T14:13:13;99642.88;;;20.26;65.50
17615;BME280;8926;49.720;6.576;2022-10-22T14:15:39;99633.69;;;20.21;65.34
17615;BME280;8926;49.720;6.576;2022-10-22T14:18:06;99648.47;;;20.23;65.48
17615;BME280;8926;49.720;6.576;2022-10-22T14:20:34;99637.03;;;20.23;65.73
17615;BME280;8926;49.720;6.576;2022-10-22T14:23:12;99634.22;;;20.24;65.55
17615;BME280;8926;49.720;6.576;2022-10-22T14:25:39;99630.34;;;20.19;65.78
17615;BME280;8926;49.720;6.576;2022-10-22T14:28:04;99629.13;;;20.13;65.00
17615;BME280;8926;49.720;6.576;2022-10-22T14:30:30;99626.34;;;19.97;65.33
17615;BME280;8926;49.720;6.576;2022-10-22T14:32:57;99637.97;;;20.04;65.35
17615;BME280;8926;49.720;6.576;2022-10-22T14:35:23;99637.97;;;20.04;66.25
17615;BME280;8926;49.720;6.576;2022-10-22T14:37:49;99633.31;;;19.98;66.33
17615;BME280;8926;49.720;6.576;2022-10-22T14:40:16;99634.88;;;19.91;66.22
17615;BME280;8926;49.720;6.576;2022-10-22T14:42:43;99624.41;;;19.89;66.48